createdAt,value
2023-03-19T00:00:06.339Z,83.72
2023-03-19T00:01:06.347Z,83.53
2023-03-19T00:28:38.519Z,83.28
2023-03-19T00:29:38.502Z,82.90
2023-03-19T00:30:38.573Z,82.95
2023-03-19T00:31:38.508Z,83.14
2023-03-19T00:32:38.608Z,83.24
2023-03-19T00:33:38.524Z,83.53
2023-03-19T00:34:38.534Z,83.34
2023-03-19T00:35:38.553Z,83.72
2023-03-19T00:36:38.545Z,84.20
2023-03-19T00:37:38.548Z,84.34
2023-03-19T00:38:38.555Z,84.25
2023-03-19T00:39:38.560Z,84.53
2023-03-19T00:40:38.559Z,84.44
2023-03-19T00:41:38.565Z,84.39
2023-03-19T00:42:38.582Z,85.25
2023-03-19T00:43:38.602Z,85.05
2023-03-19T00:44:38.608Z,84.77
2023-03-19T00:45:38.589Z,84.96
2023-03-19T00:46:38.604Z,85.05
2023-03-19T00:47:38.610Z,85.44
2023-03-19T00:48:38.610Z,85.25
2023-03-19T00:49:38.617Z,85.15
2023-03-19T00:50:38.628Z,85.05
2023-03-19T00:51:38.625Z,84.86
2023-03-19T00:52:38.635Z,85.34
2023-03-19T00:53:38.647Z,85.34
2023-03-19T00:54:38.651Z,85.15
2023-03-19T00:55:38.651Z,85.15
2023-03-19T00:56:38.666Z,85.15
2023-03-19T00:57:38.685Z,85.15
2023-03-19T00:58:38.682Z,85.05
2023-03-19T00:59:38.688Z,85.34
2023-03-19T01:00:39.727Z,85.44
2023-03-19T01:01:38.753Z,85.05
2023-03-19T01:02:38.704Z,85.15
2023-03-19T01:03:38.709Z,85.15
2023-03-19T01:04:38.762Z,85.15
2023-03-19T01:05:38.714Z,85.15
2023-03-19T01:06:38.717Z,85.34
2023-03-19T01:07:38.727Z,85.34
2023-03-19T01:08:38.737Z,85.05
2023-03-19T01:09:38.744Z,85.15
2023-03-19T01:10:38.756Z,85.25
2023-03-19T01:11:38.755Z,85.05
2023-03-19T01:12:38.756Z,85.63
2023-03-19T01:13:38.758Z,85.25
2023-03-19T01:14:38.778Z,85.34
2023-03-19T01:15:38.773Z,85.25
2023-03-19T01:16:38.950Z,85.63
2023-03-19T01:17:38.812Z,85.53
2023-03-19T01:18:38.800Z,85.44
2023-03-19T01:19:38.806Z,85.34
2023-03-19T01:20:39.824Z,85.34
2023-03-19T01:21:38.819Z,85.25
2023-03-19T01:22:38.853Z,85.44
2023-03-19T01:23:38.831Z,85.72
2023-03-19T01:24:38.841Z,85.63
2023-03-19T01:25:38.850Z,85.63
2023-03-19T01:26:38.855Z,85.63
2023-03-19T01:27:38.860Z,85.53
2023-03-19T01:28:38.857Z,85.58
2023-03-19T01:29:38.871Z,85.58
2023-03-19T01:30:38.878Z,85.67
2023-03-19T01:31:38.885Z,85.38
2023-03-19T01:32:38.939Z,85.77
2023-03-19T01:33:38.890Z,85.48
2023-03-19T01:34:38.894Z,85.38
2023-03-19T01:36:27.722Z,85.58
2023-03-19T01:37:21.472Z,85.58
2023-03-19T01:38:21.466Z,85.67
2023-03-19T01:39:21.469Z,85.38
2023-03-19T01:40:22.686Z,85.29
2023-03-19T01:41:21.474Z,85.10
2023-03-19T01:42:21.500Z,85.58
2023-03-19T01:43:21.489Z,85.38
2023-03-19T01:44:21.501Z,85.38
2023-03-19T01:45:21.508Z,85.48
2023-03-19T01:46:21.527Z,85.58
2023-03-19T01:47:21.513Z,85.48
2023-03-19T01:48:21.548Z,85.00
2023-03-19T01:49:21.550Z,85.29
2023-03-19T01:50:21.538Z,85.58
2023-03-19T01:51:21.552Z,85.00
2023-03-19T01:52:21.550Z,85.19
2023-03-19T01:54:06.738Z,85.77
2023-03-19T01:55:04.099Z,85.29
2023-03-19T01:56:04.117Z,85.48
2023-03-19T01:57:04.120Z,85.67
2023-03-19T01:58:04.128Z,85.58
2023-03-19T01:59:04.137Z,85.58
2023-03-19T02:00:04.130Z,85.48
2023-03-19T02:01:04.138Z,85.48
2023-03-19T02:02:04.160Z,86.05
2023-03-19T02:03:04.167Z,86.20
2023-03-19T02:04:46.865Z,86.15
2023-03-19T02:05:46.716Z,86.05
2023-03-19T02:06:46.725Z,85.72
2023-03-19T02:07:46.725Z,85.82
2023-03-19T02:08:46.723Z,86.10
2023-03-19T02:09:46.736Z,85.91
2023-03-19T02:10:46.773Z,86.20
2023-03-19T02:11:46.746Z,86.01
2023-03-19T02:12:46.912Z,86.39
2023-03-19T02:13:46.757Z,86.91
2023-03-19T02:14:47.806Z,87.20
2023-03-19T02:15:46.861Z,86.91
2023-03-19T02:16:49.403Z,86.82
2023-03-19T02:17:46.786Z,86.63
2023-03-19T02:18:46.802Z,86.72
2023-03-19T02:19:46.800Z,86.72
2023-03-19T02:20:46.823Z,87.10
2023-03-19T02:21:46.804Z,87.06
2023-03-19T02:22:46.814Z,86.72
2023-03-19T02:23:46.829Z,86.72
2023-03-19T02:24:46.833Z,86.91
2023-03-19T02:25:46.831Z,87.01
2023-03-19T02:26:46.839Z,87.20
2023-03-19T02:27:46.844Z,87.10
2023-03-19T02:28:46.856Z,87.01
2023-03-19T02:29:49.170Z,86.82
2023-03-19T02:30:46.873Z,86.63
2023-03-19T02:31:46.950Z,86.82
2023-03-19T02:32:46.995Z,86.58
2023-03-19T02:33:46.884Z,87.01
2023-03-19T02:34:46.889Z,87.20
2023-03-19T02:35:46.959Z,86.91
2023-03-19T02:36:46.924Z,87.39
2023-03-19T02:37:46.920Z,87.63
2023-03-19T02:38:46.916Z,86.87
2023-03-19T02:39:47.729Z,86.96
2023-03-19T02:40:46.924Z,86.96
2023-03-19T02:41:46.955Z,86.77
2023-03-19T02:42:46.940Z,87.54
2023-03-19T02:43:46.946Z,87.25
2023-03-19T02:44:46.950Z,87.54
2023-03-19T02:45:46.957Z,87.92
2023-03-19T02:46:47.032Z,87.82
2023-03-19T02:47:46.972Z,87.63
2023-03-19T02:48:46.980Z,87.73
2023-03-19T02:49:46.982Z,87.82
2023-03-19T02:50:46.999Z,88.20
2023-03-19T02:51:47.005Z,88.11
2023-03-19T02:52:47.034Z,88.40
2023-03-19T02:53:47.017Z,88.30
2023-03-19T02:54:47.019Z,88.20
2023-03-19T02:55:47.025Z,88.30
2023-03-19T02:56:47.030Z,88.78
2023-03-19T02:57:47.043Z,88.68
2023-03-19T02:58:47.045Z,88.68
2023-03-19T02:59:47.046Z,89.35
2023-03-19T03:00:47.097Z,89.45
2023-03-19T03:01:47.152Z,89.83
2023-03-19T03:02:47.073Z,89.73
2023-03-19T03:03:47.086Z,89.64
2023-03-19T03:04:47.079Z,89.83
2023-03-19T03:05:47.107Z,89.69
2023-03-19T03:06:47.099Z,90.21
2023-03-19T03:07:47.098Z,90.21
2023-03-19T03:08:47.127Z,89.97
2023-03-19T03:09:47.110Z,90.11
2023-03-19T03:10:47.127Z,90.69
2023-03-19T03:11:47.149Z,90.69
2023-03-19T03:12:47.136Z,90.97
2023-03-19T03:13:47.149Z,91.16
2023-03-19T03:14:47.153Z,91.02
2023-03-19T03:15:47.157Z,90.64
2023-03-19T03:16:47.260Z,91.02
2023-03-19T03:17:47.176Z,91.12
2023-03-19T03:18:47.180Z,91.31
2023-03-19T03:19:47.188Z,91.69
2023-03-19T03:20:47.190Z,91.60
2023-03-19T03:21:47.196Z,92.07
2023-03-19T03:22:47.215Z,92.36
2023-03-19T03:23:47.208Z,91.88
2023-03-19T03:24:47.236Z,92.74
2023-03-19T03:25:47.215Z,92.65
2023-03-19T03:26:47.222Z,92.36
2023-03-19T03:27:47.234Z,92.26
2023-03-19T03:28:47.232Z,92.26
2023-03-19T03:29:47.856Z,92.46
2023-03-19T03:30:47.250Z,92.46
2023-03-19T03:31:47.331Z,92.55
2023-03-19T03:33:39.818Z,92.36
2023-03-19T03:34:39.834Z,92.07
2023-03-19T03:35:39.897Z,92.55
2023-03-19T03:36:39.850Z,92.46
2023-03-19T03:37:39.846Z,92.46
2023-03-19T03:38:39.855Z,92.74
2023-03-19T03:39:39.862Z,92.55
2023-03-19T03:40:40.090Z,92.55
2023-03-19T03:41:39.875Z,92.55
2023-03-19T03:42:39.885Z,92.83
2023-03-19T03:43:39.889Z,92.83
2023-03-19T03:44:39.897Z,92.55
2023-03-19T03:45:40.139Z,92.93
2023-03-19T03:46:39.905Z,93.22
2023-03-19T03:47:39.916Z,93.17
2023-03-19T03:48:39.916Z,92.69
2023-03-19T03:49:39.923Z,93.17
2023-03-19T03:50:39.933Z,93.36
2023-03-19T03:51:39.938Z,92.98
2023-03-19T03:52:39.938Z,92.79
2023-03-19T03:53:39.939Z,93.08
2023-03-19T03:54:39.949Z,93.36
2023-03-19T03:55:39.958Z,92.98
2023-03-19T03:56:39.982Z,93.17
2023-03-19T03:57:39.978Z,93.17
2023-03-19T03:58:39.978Z,93.17
2023-03-19T03:59:39.982Z,92.98
2023-03-19T04:00:39.991Z,93.55
2023-03-19T04:01:39.994Z,93.22
2023-03-19T04:02:40.063Z,93.65
2023-03-19T04:03:40.105Z,93.46
2023-03-19T04:04:40.012Z,93.65
2023-03-19T04:05:40.019Z,94.03
2023-03-19T04:09:05.882Z,94.12
2023-03-19T04:10:05.870Z,94.37
2023-03-19T04:52:32.258Z,99.51
2023-03-19T04:53:32.241Z,99.32
2023-03-19T04:54:32.243Z,99.13
2023-03-19T04:55:32.250Z,99.32
2023-03-19T04:56:32.259Z,99.99
2023-03-19T04:57:32.260Z,99.99
2023-03-19T04:58:32.272Z,99.99
2023-03-19T04:59:32.263Z,99.99
2023-03-19T05:00:32.495Z,99.99
2023-03-19T05:01:32.317Z,99.99
2023-03-19T05:02:32.288Z,99.99
2023-03-19T05:03:32.355Z,99.99
2023-03-19T05:04:32.291Z,99.99
2023-03-19T05:05:32.306Z,99.99
2023-03-19T05:06:32.300Z,99.99
2023-03-19T05:07:32.312Z,99.99
2023-03-19T05:08:32.348Z,99.99
2023-03-19T05:09:32.326Z,99.99
2023-03-19T05:10:32.514Z,99.99
2023-03-19T05:11:32.335Z,99.99
2023-03-19T05:12:32.331Z,99.99
2023-03-19T05:13:32.348Z,99.99
2023-03-19T05:14:32.348Z,99.99
2023-03-19T05:15:32.385Z,99.99
2023-03-19T05:16:32.352Z,99.99
2023-03-19T05:17:32.367Z,99.99
2023-03-19T05:18:32.371Z,99.99
2023-03-19T05:19:32.371Z,99.99
2023-03-19T05:20:32.719Z,99.99
2023-03-19T05:21:32.388Z,99.99
2023-03-19T05:22:32.384Z,99.99
2023-03-19T05:23:32.392Z,99.99
2023-03-19T05:24:32.422Z,99.99
2023-03-19T05:25:32.410Z,99.99
2023-03-19T05:26:32.419Z,99.99
2023-03-19T05:27:32.410Z,99.99
2023-03-19T05:28:32.423Z,99.99
2023-03-19T05:29:32.422Z,99.99
2023-03-19T05:30:32.776Z,99.99
2023-03-19T05:31:32.492Z,99.99
2023-03-19T05:32:32.475Z,99.99
2023-03-19T05:33:32.479Z,99.99
2023-03-19T05:34:32.459Z,99.99
2023-03-19T05:35:32.546Z,99.99
2023-03-19T05:36:32.486Z,99.99
2023-03-19T05:37:32.473Z,99.99
2023-03-19T05:38:32.471Z,99.99
2023-03-19T05:39:32.473Z,99.99
2023-03-19T05:40:32.848Z,99.99
2023-03-19T05:41:32.484Z,99.99
2023-03-19T05:42:32.491Z,99.99
2023-03-19T05:43:32.503Z,99.99
2023-03-19T05:44:32.506Z,99.99
2023-03-19T05:45:32.506Z,99.99
2023-03-19T05:46:32.566Z,99.99
2023-03-19T05:47:32.524Z,99.99
2023-03-19T05:48:32.530Z,99.99
2023-03-19T05:49:32.537Z,99.99
2023-03-19T05:50:32.777Z,99.99
2023-03-19T05:51:32.552Z,99.99
2023-03-19T05:52:32.548Z,99.99
2023-03-19T05:53:32.562Z,99.99
2023-03-19T05:54:32.568Z,99.99
2023-03-19T05:55:32.570Z,99.99
2023-03-19T05:56:32.585Z,99.99
2023-03-19T05:57:32.584Z,99.99
2023-03-19T05:58:32.573Z,99.99
2023-03-19T05:59:32.579Z,99.99
2023-03-19T06:00:32.848Z,99.99
2023-03-19T06:01:32.616Z,99.99
2023-03-19T06:02:32.713Z,99.99
2023-03-19T06:03:32.677Z,99.99
2023-03-19T06:04:32.613Z,99.99
2023-03-19T06:05:32.610Z,99.99
2023-03-19T06:06:32.624Z,99.99
2023-03-19T06:07:32.623Z,99.99
2023-03-19T06:08:32.631Z,99.99
2023-03-19T06:09:32.635Z,99.95
2023-03-19T06:10:32.907Z,99.99
2023-03-19T06:11:32.649Z,99.99
2023-03-19T06:12:32.811Z,99.66
2023-03-19T06:13:32.652Z,99.66
2023-03-19T06:14:32.666Z,99.99
2023-03-19T06:15:33.020Z,99.99
2023-03-19T06:16:32.743Z,99.95
2023-03-19T06:17:32.683Z,99.99
2023-03-19T06:18:32.681Z,99.99
2023-03-19T06:19:32.693Z,99.46
2023-03-19T06:20:33.092Z,99.46
2023-03-19T06:21:32.704Z,99.37
2023-03-19T06:22:32.710Z,99.27
2023-03-19T06:23:32.719Z,99.18
2023-03-19T06:24:32.724Z,99.56
2023-03-19T06:25:32.724Z,99.37
2023-03-19T06:26:32.734Z,99.75
2023-03-19T06:27:32.732Z,99.37
2023-03-19T06:28:32.756Z,99.75
2023-03-19T06:29:32.755Z,99.75
2023-03-19T06:30:33.138Z,99.18
2023-03-19T06:31:32.797Z,98.99
2023-03-19T06:32:32.828Z,99.27
2023-03-19T06:33:32.767Z,99.18
2023-03-19T06:34:32.772Z,99.08
2023-03-19T06:35:32.818Z,99.18
2023-03-19T06:36:32.794Z,99.08
2023-03-19T06:37:32.805Z,99.18
2023-03-19T06:38:32.803Z,98.70
2023-03-19T06:39:32.807Z,98.70
2023-03-19T06:40:33.138Z,98.65
2023-03-19T06:41:32.819Z,98.94
2023-03-19T06:42:32.881Z,98.94
2023-03-19T06:43:32.828Z,97.80
2023-03-19T06:44:32.851Z,98.32
2023-03-19T06:45:32.887Z,98.27
2023-03-19T06:46:32.847Z,97.80
2023-03-19T06:47:32.853Z,97.80
2023-03-19T06:48:32.852Z,97.85
2023-03-19T06:49:32.868Z,98.22
2023-03-19T06:50:33.188Z,98.22
2023-03-19T06:51:32.878Z,97.80
2023-03-19T06:52:32.887Z,98.42
2023-03-19T06:53:32.884Z,98.27
2023-03-19T06:54:32.902Z,97.85
2023-03-19T06:55:32.895Z,98.42
2023-03-19T06:56:32.906Z,98.22
2023-03-19T06:57:32.899Z,98.42
2023-03-19T06:58:32.915Z,98.32
2023-03-19T06:59:32.927Z,98.13
2023-03-19T07:00:33.404Z,98.13
2023-03-19T07:01:32.953Z,97.75
2023-03-19T07:02:32.928Z,98.13
2023-03-19T07:03:32.941Z,97.85
2023-03-19T07:04:32.978Z,97.85
2023-03-19T07:05:32.942Z,97.37
2023-03-19T07:06:32.949Z,97.56
2023-03-19T07:07:32.960Z,97.46
2023-03-19T07:08:32.960Z,97.66
2023-03-19T07:09:32.973Z,97.37
2023-03-19T07:10:33.529Z,97.27
2023-03-19T07:11:35.702Z,97.71
2023-03-19T07:12:32.990Z,97.80
2023-03-19T07:13:32.996Z,97.61
2023-03-19T07:14:33.003Z,97.22
2023-03-19T07:15:32.999Z,97.51
2023-03-19T07:16:33.089Z,97.22
2023-03-19T07:17:33.008Z,96.94
2023-03-19T07:18:33.017Z,96.70
2023-03-19T07:19:33.021Z,97.03
2023-03-19T07:20:33.300Z,96.46
2023-03-19T07:21:33.055Z,96.32
2023-03-19T07:22:33.046Z,95.94
2023-03-19T07:23:33.054Z,96.13
2023-03-19T07:24:33.050Z,95.41
2023-03-19T07:25:33.061Z,95.84
2023-03-19T07:26:33.064Z,95.75
2023-03-19T07:27:33.070Z,95.65
2023-03-19T07:33:13.526Z,95.08
2023-03-19T07:34:13.361Z,94.89
2023-03-19T07:35:13.362Z,94.79
2023-03-19T07:36:13.376Z,95.17
2023-03-19T07:38:05.939Z,94.41
2023-03-19T07:39:05.951Z,94.41
2023-03-19T07:40:05.950Z,94.51
2023-03-19T07:41:05.955Z,94.70
2023-03-19T07:42:05.961Z,94.12
2023-03-19T07:43:05.975Z,94.12
2023-03-19T07:50:13.866Z,93.55
2023-03-19T07:51:12.834Z,93.46
2023-03-19T07:52:12.833Z,93.26
2023-03-19T07:53:12.848Z,93.17
2023-03-19T07:54:12.864Z,93.36
2023-03-19T07:55:12.860Z,93.26
2023-03-19T07:56:12.860Z,93.65
2023-03-19T07:57:12.873Z,93.46
2023-03-19T07:58:12.879Z,93.21
2023-03-19T07:59:12.878Z,92.93
2023-03-19T08:00:12.924Z,93.31
2023-03-19T08:01:12.894Z,93.31
2023-03-19T08:02:12.946Z,92.45
2023-03-19T08:03:12.910Z,92.74
2023-03-19T08:04:12.928Z,92.74
2023-03-19T08:05:13.324Z,92.64
2023-03-19T08:06:12.956Z,92.16
2023-03-19T08:07:13.032Z,92.45
2023-03-19T08:08:12.952Z,92.21
2023-03-19T08:09:12.954Z,91.92
2023-03-19T08:10:12.971Z,91.96
2023-03-19T08:11:12.958Z,91.28
2023-03-19T08:12:12.978Z,90.08
2023-03-19T08:13:12.975Z,89.02
2023-03-19T09:13:28.317Z,60.69
2023-03-19T09:14:28.304Z,61.24
2023-03-19T09:15:28.316Z,61.98
2023-03-19T09:16:28.357Z,62.45
2023-03-19T09:17:28.330Z,63.29
2023-03-19T09:18:28.358Z,63.86
2023-03-19T09:19:28.362Z,64.22
2023-03-19T09:20:28.368Z,64.89
2023-03-19T09:21:28.377Z,65.36
2023-03-19T09:22:28.380Z,65.62
2023-03-19T09:23:28.409Z,66.19
2023-03-19T09:24:28.413Z,66.96
2023-03-19T09:25:28.407Z,67.21
2023-03-19T09:26:28.421Z,67.69
2023-03-19T09:27:28.438Z,67.88
2023-03-19T09:29:31.216Z,68.94
2023-03-19T09:30:31.034Z,69.67
2023-03-19T09:31:31.080Z,70.24
2023-03-19T09:32:31.138Z,70.05
2023-03-19T09:33:31.061Z,70.43
2023-03-19T09:34:31.071Z,71.11
2023-03-19T09:35:31.093Z,70.91
2023-03-19T09:36:31.096Z,71.58
2023-03-19T09:37:31.102Z,71.58
2023-03-19T09:38:31.111Z,71.87
2023-03-19T09:39:31.113Z,71.97
2023-03-19T09:40:31.121Z,72.34
2023-03-19T09:41:31.131Z,72.92
2023-03-19T09:42:31.145Z,73.02
2023-03-19T09:43:31.154Z,73.15
2023-03-19T09:44:31.158Z,73.59
2023-03-19T09:45:31.188Z,73.44
2023-03-19T09:46:31.302Z,73.82
2023-03-19T09:47:31.186Z,73.63
2023-03-19T09:48:31.200Z,74.01
2023-03-19T09:49:31.204Z,74.52
2023-03-19T09:50:31.210Z,74.52
2023-03-19T09:51:31.221Z,74.57
2023-03-19T09:52:31.232Z,74.27
2023-03-19T09:53:31.235Z,73.70
2023-03-19T09:54:31.246Z,73.83
2023-03-19T09:55:31.266Z,73.83
2023-03-19T09:56:31.269Z,73.45
2023-03-19T09:57:31.276Z,73.10
2023-03-19T09:58:31.286Z,73.14
2023-03-19T09:59:31.301Z,72.66
2023-03-19T10:00:31.298Z,72.41
2023-03-19T10:05:04.787Z,70.11
2023-03-19T10:06:04.776Z,69.85
2023-03-19T10:07:04.793Z,69.38
2023-03-19T10:08:47.354Z,68.29
2023-03-19T10:09:47.355Z,67.42
2023-03-19T10:10:47.364Z,67.07
2023-03-19T10:11:47.384Z,66.20
2023-03-19T10:22:51.650Z,63.34
2023-03-19T10:23:51.640Z,62.96
2023-03-19T10:24:51.646Z,63.44
2023-03-19T10:25:54.287Z,63.63
2023-03-19T10:26:51.676Z,63.63
2023-03-19T10:27:51.683Z,63.15
2023-03-19T10:51:57.466Z,62.13
2023-03-19T10:52:57.417Z,62.61
2023-03-19T10:53:57.428Z,62.58
2023-03-19T10:54:57.470Z,62.87
2023-03-19T10:55:57.446Z,63.64
2023-03-19T10:56:57.460Z,63.51
2023-03-19T10:57:57.483Z,64.09
2023-03-19T10:58:57.517Z,63.79
2023-03-19T10:59:57.502Z,64.25
2023-03-19T11:00:57.667Z,64.63
2023-03-19T11:01:57.514Z,64.92
2023-03-19T11:02:57.530Z,65.17
2023-03-19T11:03:57.640Z,65.65
2023-03-19T11:04:57.559Z,66.23
2023-03-19T11:05:57.563Z,65.94
2023-03-19T11:06:57.573Z,65.94
2023-03-19T11:07:57.608Z,66.77
2023-03-19T11:08:57.603Z,66.96
2023-03-19T11:09:57.605Z,66.96
2023-03-19T11:10:57.618Z,67.44
2023-03-19T11:11:57.635Z,68.02
2023-03-19T11:12:57.667Z,68.02
2023-03-19T11:13:57.651Z,67.73
2023-03-19T11:14:57.651Z,68.12
2023-03-19T11:45:01.982Z,66.62
2023-03-19T11:46:02.037Z,66.14
2023-03-19T11:47:54.557Z,65.46
2023-03-19T11:48:54.578Z,65.27
2023-03-19T11:49:55.404Z,65.46
2023-03-19T11:50:54.601Z,65.46
2023-03-19T11:51:54.620Z,65.46
2023-03-19T11:52:54.620Z,65.40
2023-03-19T11:53:54.634Z,65.30
2023-03-19T11:54:54.659Z,65.40
2023-03-19T11:55:54.663Z,64.47
2023-03-19T13:34:03.294Z,61.55
2023-03-19T13:35:03.284Z,61.65
2023-03-19T13:36:03.391Z,62.03
2023-03-19T13:37:03.313Z,62.71
2023-03-19T13:38:03.321Z,62.54
2023-03-19T13:39:03.329Z,62.61
2023-03-19T13:40:03.345Z,62.74
2023-03-19T13:41:03.378Z,62.93
2023-03-19T13:42:03.377Z,62.45
2023-03-19T13:43:03.374Z,62.83
2023-03-19T13:44:03.384Z,62.64
2023-03-19T13:45:04.114Z,62.64
2023-03-19T13:46:03.419Z,62.35
2023-03-19T13:47:03.596Z,62.64
2023-03-19T13:48:14.631Z,62.64
2023-03-19T13:49:03.452Z,62.74
2023-03-19T13:50:03.628Z,62.41
2023-03-19T13:51:03.487Z,62.71
2023-03-19T13:52:03.500Z,62.71
2023-03-19T13:53:03.495Z,62.61
2023-03-19T13:54:03.514Z,63.09
2023-03-19T13:55:03.527Z,62.99
2023-03-19T13:56:03.531Z,63.45
2023-03-19T13:57:03.553Z,63.09
2023-03-19T13:58:03.565Z,63.25
2023-03-19T13:59:03.588Z,63.25
2023-03-19T14:00:03.586Z,63.25
2023-03-19T14:01:03.821Z,63.45
2023-03-19T14:02:03.616Z,63.45
2023-03-19T14:03:03.618Z,64.22
2023-03-19T14:04:03.779Z,64.02
2023-03-19T14:05:03.667Z,64.40
2023-03-19T14:06:03.700Z,64.40
2023-03-19T14:07:03.670Z,64.60
2023-03-19T14:08:03.683Z,64.22
2023-03-19T14:09:03.700Z,64.40
2023-03-19T14:10:03.698Z,64.50
2023-03-19T14:11:03.719Z,64.40
2023-03-19T14:12:03.723Z,64.69
2023-03-19T14:13:03.743Z,64.69
2023-03-19T14:14:03.761Z,65.23
2023-03-19T14:15:03.763Z,65.53
2023-03-19T14:16:03.854Z,65.14
2023-03-19T14:17:03.786Z,65.62
2023-03-19T14:18:03.791Z,66.20
2023-03-19T14:19:04.923Z,66.10
2023-03-19T14:20:07.956Z,66.39
2023-03-19T14:21:07.086Z,65.75
2023-03-19T14:22:05.988Z,66.14
2023-03-19T14:23:03.850Z,66.61
2023-03-19T14:24:03.860Z,66.23
2023-03-19T14:25:03.948Z,66.23
2023-03-19T14:26:03.894Z,66.23
2023-03-19T14:27:03.900Z,66.23
2023-03-19T14:28:03.912Z,65.84
2023-03-19T14:29:03.923Z,66.71
2023-03-19T14:30:03.935Z,66.52
2023-03-19T14:31:03.939Z,66.97
2023-03-19T14:32:04.002Z,66.58
2023-03-19T14:33:04.093Z,67.25
2023-03-19T14:34:03.981Z,66.87
2023-03-19T14:35:03.993Z,66.97
2023-03-19T14:36:04.045Z,67.45
2023-03-19T14:37:04.017Z,67.54
2023-03-19T14:38:04.195Z,67.35
2023-03-19T14:39:04.032Z,67.45
2023-03-19T14:40:04.048Z,67.64
2023-03-19T14:41:04.056Z,67.35
2023-03-19T14:42:04.100Z,67.45
2023-03-19T14:43:04.083Z,68.21
2023-03-19T14:44:04.095Z,67.83
2023-03-19T14:45:04.109Z,67.93
2023-03-19T14:46:04.317Z,68.02
2023-03-19T14:47:04.147Z,67.93
2023-03-19T14:48:04.143Z,68.02
2023-03-19T14:49:04.152Z,67.99
2023-03-19T14:50:04.165Z,68.12
2023-03-19T14:51:04.167Z,68.37
2023-03-19T14:52:04.188Z,68.37
2023-03-19T14:53:04.197Z,68.37
2023-03-19T14:54:04.235Z,68.28
2023-03-19T14:55:04.215Z,68.60
2023-03-19T14:56:04.224Z,68.66
2023-03-19T14:57:04.235Z,68.85
2023-03-19T14:58:04.253Z,69.43
2023-03-19T14:59:04.302Z,69.14
2023-03-19T15:00:04.273Z,69.24
2023-03-19T15:01:04.344Z,69.24
2023-03-19T15:02:04.290Z,69.24
2023-03-19T15:03:04.302Z,68.85
2023-03-19T15:04:04.342Z,68.76
2023-03-19T15:05:04.366Z,68.85
2023-03-19T15:06:04.334Z,69.24
2023-03-19T15:07:04.353Z,69.24
2023-03-19T15:08:04.371Z,69.24
2023-03-19T15:09:04.374Z,69.24
2023-03-19T15:10:06.540Z,69.34
2023-03-19T15:11:04.401Z,69.05
2023-03-19T15:12:04.402Z,69.14
2023-03-19T15:13:04.414Z,69.05
2023-03-19T15:14:04.435Z,69.24
2023-03-19T15:15:04.440Z,69.14
2023-03-19T15:16:04.445Z,69.11
2023-03-19T15:17:04.605Z,69.20
2023-03-19T15:18:04.637Z,69.20
2023-03-19T15:19:04.481Z,69.49
2023-03-19T15:20:04.486Z,69.68
2023-03-19T15:21:04.509Z,70.07
2023-03-19T15:22:04.515Z,69.87
2023-03-19T15:23:07.219Z,69.68
2023-03-19T15:24:04.533Z,69.78
2023-03-19T15:25:04.537Z,69.68
2023-03-19T15:26:04.591Z,69.78
2023-03-19T15:27:04.568Z,69.87
2023-03-19T15:28:04.674Z,69.78
2023-03-19T15:29:04.723Z,70.07
2023-03-19T15:30:14.379Z,70.26
2023-03-19T15:31:20.229Z,70.36
2023-03-19T15:32:07.542Z,70.23
2023-03-19T15:33:13.927Z,70.42
2023-03-19T15:34:04.756Z,70.51
2023-03-19T15:35:04.859Z,70.61
2023-03-19T15:36:04.750Z,70.42
2023-03-19T15:37:04.664Z,70.42
2023-03-19T15:38:04.674Z,70.99
2023-03-19T15:39:04.743Z,70.70
2023-03-19T15:40:04.859Z,70.99
2023-03-19T15:41:04.710Z,71.09
2023-03-19T15:42:04.725Z,71.37
2023-03-19T15:43:04.724Z,71.19
2023-03-19T15:44:04.743Z,71.19
2023-03-19T15:45:04.744Z,71.09
2023-03-19T15:46:04.791Z,71.09
2023-03-19T15:47:04.827Z,71.86
2023-03-19T15:48:04.804Z,71.76
2023-03-19T15:49:04.771Z,71.66
2023-03-19T15:50:04.787Z,71.66
2023-03-19T15:51:04.798Z,72.05
2023-03-19T15:52:04.799Z,71.76
2023-03-19T15:53:04.816Z,71.95
2023-03-19T15:54:04.820Z,72.14
2023-03-19T15:55:04.829Z,72.14
2023-03-19T15:56:04.841Z,71.92
2023-03-19T15:57:04.859Z,72.49
2023-03-19T15:58:04.882Z,72.39
2023-03-19T15:59:04.868Z,72.43
2023-03-19T16:00:04.884Z,72.30
2023-03-19T16:01:04.963Z,73.16
2023-03-19T16:02:04.906Z,73.10
2023-03-19T16:03:04.947Z,73.16
2023-03-19T16:04:04.909Z,73.07
2023-03-19T16:05:21.859Z,73.16
2023-03-19T16:06:04.927Z,73.16
2023-03-19T16:07:04.948Z,73.35
2023-03-19T16:08:04.946Z,73.35
2023-03-19T16:09:04.954Z,73.07
2023-03-19T16:10:04.963Z,72.78
2023-03-19T16:11:04.973Z,72.78
2023-03-19T16:12:04.990Z,73.35
2023-03-19T16:13:05.034Z,72.88
2023-03-19T16:14:05.122Z,72.55
2023-03-19T16:15:05.014Z,72.94
2023-03-19T16:16:05.092Z,72.84
2023-03-19T16:17:05.024Z,73.22
2023-03-19T16:18:05.036Z,73.03
2023-03-19T16:19:05.040Z,73.51
2023-03-19T16:20:05.062Z,73.51
2023-03-19T16:21:05.071Z,73.32
2023-03-19T16:22:05.072Z,73.32
2023-03-19T16:23:05.076Z,73.90
2023-03-19T16:24:05.095Z,73.90
2023-03-19T16:25:05.095Z,73.80
2023-03-19T16:26:05.121Z,73.57
2023-03-19T16:27:05.131Z,74.33
2023-03-19T16:28:05.132Z,74.43
2023-03-19T16:29:05.133Z,74.15
2023-03-19T16:30:05.159Z,74.24
2023-03-19T16:31:05.186Z,74.43
2023-03-19T16:32:05.156Z,74.24
2023-03-19T16:33:05.320Z,73.86
2023-03-19T16:34:05.170Z,73.86
2023-03-19T16:35:05.187Z,73.95
2023-03-19T16:36:05.342Z,73.95
2023-03-19T16:37:05.197Z,74.24
2023-03-19T16:38:05.200Z,74.24
2023-03-19T16:39:05.222Z,74.43
2023-03-19T16:40:05.222Z,74.57
2023-03-19T16:41:05.230Z,74.62
2023-03-19T17:10:20.757Z,73.66
2023-03-19T17:11:20.743Z,73.95
2023-03-19T17:12:20.751Z,73.76
2023-03-19T17:13:20.762Z,73.66
2023-03-19T17:14:20.756Z,73.66
2023-03-19T17:15:20.770Z,73.66
2023-03-19T17:16:20.808Z,73.66
2023-03-19T17:17:20.778Z,73.66
2023-03-19T17:18:20.800Z,73.66
2023-03-19T17:19:20.833Z,74.05
2023-03-19T17:20:20.808Z,73.66
2023-03-19T17:21:20.808Z,73.76
2023-03-19T17:22:20.830Z,74.15
2023-03-19T17:23:20.823Z,74.52
2023-03-19T17:24:20.841Z,74.24
2023-03-19T17:25:20.842Z,74.15
2023-03-19T17:26:20.878Z,74.15
2023-03-19T17:27:20.874Z,73.95
2023-03-19T17:28:20.872Z,73.86
2023-03-19T17:29:20.863Z,73.86
2023-03-19T17:30:20.875Z,74.62
2023-03-19T17:31:20.946Z,74.15
2023-03-19T17:32:20.900Z,74.24
2023-03-19T17:33:21.015Z,74.52
2023-03-19T17:34:20.910Z,74.43
2023-03-19T17:35:20.945Z,74.62
2023-03-19T17:36:20.940Z,74.91
2023-03-19T17:37:20.937Z,74.62
2023-03-19T17:38:20.940Z,74.52
2023-03-19T17:39:20.960Z,74.52
2023-03-19T17:40:20.982Z,74.82
2023-03-19T17:41:20.972Z,74.91
